createdAt,value
2019-03-23T00:00:02.950Z,4.36
2019-03-23T00:10:03.091Z,3.81
2019-03-23T00:20:02.868Z,3.80
2019-03-23T00:30:03.177Z,3.13
2019-03-23T00:40:02.474Z,3.38
2019-03-23T00:50:03.226Z,3.52
2019-03-23T01:00:03.031Z,3.26
2019-03-23T01:10:02.562Z,3.27
2019-03-23T01:20:02.988Z,3.31
2019-03-23T01:30:03.161Z,3.14
2019-03-23T01:40:03.002Z,3.05
2019-03-23T01:50:02.492Z,3.03
2019-03-23T02:00:03.173Z,2.94
2019-03-23T02:10:02.690Z,2.85
2019-03-23T02:20:02.491Z,2.65
2019-03-23T02:30:03.132Z,2.19
2019-03-23T02:40:02.948Z,2.12
2019-03-23T02:50:02.727Z,2.03
2019-03-23T03:00:02.671Z,2.11
2019-03-23T03:10:02.564Z,2.02
2019-03-23T03:20:03.131Z,1.80
2019-03-23T03:30:02.633Z,2.12
2019-03-23T03:40:02.711Z,1.97
2019-03-23T03:50:02.635Z,1.84
2019-03-23T04:00:03.461Z,1.61
2019-03-23T04:10:02.242Z,1.77
2019-03-23T04:20:03.128Z,1.83
2019-03-23T04:30:03.647Z,1.93
2019-03-23T04:40:02.574Z,2.01
2019-03-23T04:50:02.991Z,2.02
2019-03-23T05:00:02.870Z,2.30
2019-03-23T05:10:02.875Z,2.71
2019-03-23T05:20:02.319Z,3.10
2019-03-23T05:30:03.163Z,3.37
2019-03-23T05:40:03.189Z,3.81
2019-03-23T05:50:02.963Z,4.07
2019-03-23T06:00:03.158Z,4.64
2019-03-23T06:10:02.758Z,5.16
2019-03-23T06:20:04.616Z,5.72
2019-03-23T06:30:03.652Z,6.15
2019-03-23T06:40:02.638Z,6.95
2019-03-23T06:50:02.398Z,7.35
2019-03-23T07:00:03.209Z,8.18
2019-03-23T07:10:02.975Z,8.64
2019-03-23T07:20:02.895Z,9.50
2019-03-23T07:30:03.182Z,10.32
2019-03-23T07:40:03.177Z,11.08
2019-03-23T07:50:02.706Z,12.68
2019-03-23T08:00:02.882Z,13.32
2019-03-23T08:10:03.080Z,13.91
2019-03-23T08:20:02.975Z,14.47
2019-03-23T08:30:03.374Z,15.33
2019-03-23T08:40:03.102Z,15.51
2019-03-23T08:50:02.943Z,14.90
2019-03-23T09:00:03.731Z,16.21
2019-03-23T09:10:02.812Z,16.14
2019-03-23T09:20:02.728Z,17.04
2019-03-23T09:30:03.108Z,16.56
2019-03-23T09:40:10.602Z,16.57
2019-03-23T09:50:02.995Z,18.32
2019-03-23T10:00:03.519Z,18.84
2019-03-23T10:10:02.239Z,18.49
2019-03-23T10:20:02.560Z,17.58
2019-03-23T10:30:03.400Z,18.63
2019-03-23T10:40:02.591Z,18.45
2019-03-23T10:50:02.616Z,19.34
2019-03-23T11:00:02.927Z,18.88
2019-03-23T11:10:02.653Z,19.81
2019-03-23T11:20:02.495Z,19.28
2019-03-23T11:30:03.483Z,19.62
2019-03-23T11:40:03.423Z,19.20
2019-03-23T11:50:03.032Z,19.06
2019-03-23T12:00:03.207Z,19.23
2019-03-23T12:10:03.132Z,20.37
2019-03-23T12:20:03.332Z,19.09
2019-03-23T12:30:06.851Z,19.43
2019-03-23T12:40:02.888Z,19.53
2019-03-23T12:50:02.421Z,20.48
2019-03-23T13:00:03.503Z,19.62
2019-03-23T13:10:02.770Z,19.25
2019-03-23T13:20:02.795Z,19.38
2019-03-23T13:30:03.696Z,18.99
2019-03-23T13:40:02.759Z,19.69
2019-03-23T13:50:02.493Z,18.90
2019-03-23T14:00:03.258Z,18.86
2019-03-23T14:10:02.117Z,19.66
2019-03-23T14:20:03.066Z,18.87
2019-03-23T14:30:03.419Z,18.55
2019-03-23T14:40:02.400Z,18.79
2019-03-23T14:50:02.971Z,19.16
2019-03-23T15:00:03.197Z,19.19
2019-03-23T15:10:02.552Z,18.69
2019-03-23T15:20:02.381Z,18.59
2019-03-23T15:30:02.762Z,18.33
2019-03-23T15:40:02.775Z,18.91
2019-03-23T15:50:02.388Z,18.37
2019-03-23T16:00:03.324Z,18.07
2019-03-23T16:10:02.706Z,18.18
2019-03-23T16:20:02.565Z,17.94
2019-03-23T16:30:03.350Z,17.68
2019-03-23T16:40:02.355Z,17.62
2019-03-23T16:50:02.997Z,17.37
2019-03-23T17:00:03.420Z,17.09
2019-03-23T17:10:02.307Z,16.31
2019-03-23T17:20:03.237Z,15.43
2019-03-23T17:30:04.104Z,14.50
2019-03-23T17:40:03.218Z,14.11
2019-03-23T17:50:02.731Z,14.15
2019-03-23T18:00:03.628Z,13.90
2019-03-23T18:10:02.468Z,13.57
2019-03-23T18:20:02.318Z,13.46
2019-03-23T18:30:02.678Z,12.80
2019-03-23T18:40:03.207Z,12.14
2019-03-23T18:50:02.811Z,11.64
2019-03-23T19:00:03.463Z,11.66
2019-03-23T19:10:02.626Z,11.64
2019-03-23T19:20:02.507Z,11.05
2019-03-23T19:30:02.827Z,10.60
2019-03-23T19:40:02.833Z,10.07
2019-03-23T19:50:02.766Z,9.86
2019-03-23T20:00:03.949Z,9.80
2019-03-23T20:10:02.357Z,9.96
2019-03-23T20:20:02.315Z,9.72
2019-03-23T20:30:03.614Z,9.75
2019-03-23T20:40:02.606Z,9.59
2019-03-23T20:50:02.252Z,9.45
2019-03-23T21:00:03.278Z,9.41
2019-03-23T21:10:02.402Z,9.22
2019-03-23T21:20:02.438Z,8.79
2019-03-23T21:30:02.829Z,8.45
2019-03-23T21:40:02.887Z,8.51
2019-03-23T21:50:02.390Z,8.28
2019-03-23T22:00:03.334Z,8.28
2019-03-23T22:10:02.436Z,8.13
2019-03-23T22:20:02.804Z,8.13
2019-03-23T22:30:03.309Z,8.10
2019-03-23T22:40:03.303Z,7.76
2019-03-23T22:50:02.914Z,7.24
2019-03-23T23:00:03.300Z,7.03
2019-03-23T23:10:02.348Z,6.90
2019-03-23T23:20:03.221Z,6.85
2019-03-23T23:30:03.250Z,6.77
2019-03-23T23:40:03.404Z,6.63
2019-03-23T23:50:02.106Z,6.43
